sensor_id;sensor_type;location;lat;lon;timestamp;P1;durP1;ratioP1;P2;durP2;ratioP2
61393;SDS011;48555;50.952;-0.120;2023-08-24T00:01:56;6.88;;;3.60;;
61393;SDS011;48555;50.952;-0.120;2023-08-24T00:04:22;7.30;;;3.30;;
61393;SDS011;48555;50.952;-0.120;2023-08-24T00:06:47;6.70;;;3.35;;
61393;SDS011;48555;50.952;-0.120;2023-08-24T00:09:13;5.88;;;3.10;;
61393;SDS011;48555;50.952;-0.120;2023-08-24T00:11:40;5.88;;;3.20;;
61393;SDS011;48555;50.952;-0.120;2023-08-24T00:14:05;7.15;;;3.25;;
61393;SDS011;48555;50.952;-0.120;2023-08-24T00:16:31;4.40;;;2.72;;
61393;SDS011;48555;50.952;-0.120;2023-08-24T00:18:57;4.65;;;2.80;;
61393;SDS011;48555;50.952;-0.120;2023-08-24T00:21:22;6.38;;;3.50;;
61393;SDS011;48555;50.952;-0.120;2023-08-24T00:23:49;6.28;;;3.40;;
61393;SDS011;48555;50.952;-0.120;2023-08-24T00:26:15;6.10;;;3.08;;
61393;SDS011;48555;50.952;-0.120;2023-08-24T00:28:43;7.43;;;3.47;;
61393;SDS011;48555;50.952;-0.120;2023-08-24T00:31:09;5.57;;;3.25;;
61393;SDS011;48555;50.952;-0.120;2023-08-24T00:33:34;5.75;;;3.30;;
61393;SDS011;48555;50.952;-0.120;2023-08-24T00:36:00;7.00;;;3.30;;
61393;SDS011;48555;50.952;-0.120;2023-08-24T00:38:26;5.88;;;3.42;;
61393;SDS011;48555;50.952;-0.120;2023-08-24T00:40:51;5.38;;;2.97;;
61393;SDS011;48555;50.952;-0.120;2023-08-24T00:43:18;7.38;;;3.20;;
61393;SDS011;48555;50.952;-0.120;2023-08-24T00:45:47;5.63;;;3.10;;
61393;SDS011;48555;50.952;-0.120;2023-08-24T00:48:12;6.07;;;3.42;;
61393;SDS011;48555;50.952;-0.120;2023-08-24T00:50:37;5.60;;;3.28;;
61393;SDS011;48555;50.952;-0.120;2023-08-24T00:53:03;6.68;;;3.22;;
61393;SDS011;48555;50.952;-0.120;2023-08-24T00:55:28;6.10;;;3.25;;
61393;SDS011;48555;50.952;-0.120;2023-08-24T00:57:54;8.60;;;3.42;;
61393;SDS011;48555;50.952;-0.120;2023-08-24T01:00:20;7.07;;;3.53;;
61393;SDS011;48555;50.952;-0.120;2023-08-24T01:02:47;7.97;;;3.78;;
61393;SDS011;48555;50.952;-0.120;2023-08-24T01:05:12;5.65;;;3.10;;
61393;SDS011;48555;50.952;-0.120;2023-08-24T01:07:38;6.85;;;3.10;;
61393;SDS011;48555;50.952;-0.120;2023-08-24T01:10:05;11.23;;;3.08;;
61393;SDS011;48555;50.952;-0.120;2023-08-24T01:18:11;5.25;;;2.78;;
61393;SDS011;48555;50.952;-0.120;2023-08-24T01:20:40;5.03;;;2.50;;
61393;SDS011;48555;50.952;-0.120;2023-08-24T01:26:09;5.85;;;2.65;;
61393;SDS011;48555;50.952;-0.120;2023-08-24T01:28:36;5.78;;;2.90;;
61393;SDS011;48555;50.952;-0.120;2023-08-24T01:31:03;5.60;;;2.60;;
61393;SDS011;48555;50.952;-0.120;2023-08-24T01:33:30;4.63;;;2.58;;
61393;SDS011;48555;50.952;-0.120;2023-08-24T01:35:55;4.57;;;2.60;;
61393;SDS011;48555;50.952;-0.120;2023-08-24T01:38:20;5.10;;;2.63;;
61393;SDS011;48555;50.952;-0.120;2023-08-24T01:43:25;8.48;;;2.83;;
61393;SDS011;48555;50.952;-0.120;2023-08-24T01:45:58;7.85;;;2.80;;
61393;SDS011;48555;50.952;-0.120;2023-08-24T01:48:24;6.15;;;2.78;;
61393;SDS011;48555;50.952;-0.120;2023-08-24T01:50:50;7.00;;;3.40;;
61393;SDS011;48555;50.952;-0.120;2023-08-24T01:53:16;5.43;;;3.08;;
61393;SDS011;48555;50.952;-0.120;2023-08-24T01:55:42;5.20;;;2.85;;
61393;SDS011;48555;50.952;-0.120;2023-08-24T01:58:08;6.15;;;2.58;;
61393;SDS011;48555;50.952;-0.120;2023-08-24T02:00:33;5.55;;;3.00;;
61393;SDS011;48555;50.952;-0.120;2023-08-24T02:02:58;5.97;;;2.63;;
61393;SDS011;48555;50.952;-0.120;2023-08-24T02:05:24;5.53;;;2.90;;
61393;SDS011;48555;50.952;-0.120;2023-08-24T02:07:52;4.32;;;2.78;;
61393;SDS011;48555;50.952;-0.120;2023-08-24T02:10:18;5.60;;;2.70;;
61393;SDS011;48555;50.952;-0.120;2023-08-24T02:12:44;4.55;;;2.63;;
61393;SDS011;48555;50.952;-0.120;2023-08-24T02:15:09;4.82;;;2.65;;
61393;SDS011;48555;50.952;-0.120;2023-08-24T02:17:34;6.10;;;3.10;;
61393;SDS011;48555;50.952;-0.120;2023-08-24T02:20:00;6.32;;;2.80;;
61393;SDS011;48555;50.952;-0.120;2023-08-24T02:22:25;4.25;;;2.53;;
61393;SDS011;48555;50.952;-0.120;2023-08-24T02:24:50;5.35;;;2.70;;
61393;SDS011;48555;50.952;-0.120;2023-08-24T02:27:16;5.30;;;2.75;;
61393;SDS011;48555;50.952;-0.120;2023-08-24T02:29:41;5.57;;;2.90;;
61393;SDS011;48555;50.952;-0.120;2023-08-24T02:32:06;5.47;;;2.63;;
61393;SDS011;48555;50.952;-0.120;2023-08-24T02:34:32;5.15;;;2.80;;
61393;SDS011;48555;50.952;-0.120;2023-08-24T02:36:57;7.05;;;3.03;;
61393;SDS011;48555;50.952;-0.120;2023-08-24T02:39:22;5.07;;;2.55;;
61393;SDS011;48555;50.952;-0.120;2023-08-24T02:41:48;5.95;;;2.58;;
61393;SDS011;48555;50.952;-0.120;2023-08-24T02:44:14;6.95;;;2.80;;
61393;SDS011;48555;50.952;-0.120;2023-08-24T02:46:39;6.13;;;3.05;;
61393;SDS011;48555;50.952;-0.120;2023-08-24T02:49:05;6.78;;;2.60;;
61393;SDS011;48555;50.952;-0.120;2023-08-24T02:51:30;6.25;;;2.63;;
61393;SDS011;48555;50.952;-0.120;2023-08-24T02:53:56;8.02;;;2.88;;
61393;SDS011;48555;50.952;-0.120;2023-08-24T02:56:21;5.40;;;2.67;;
61393;SDS011;48555;50.952;-0.120;2023-08-24T02:58:47;5.28;;;2.63;;
61393;SDS011;48555;50.952;-0.120;2023-08-24T03:01:12;5.72;;;2.80;;
61393;SDS011;48555;50.952;-0.120;2023-08-24T03:03:37;4.40;;;2.40;;
61393;SDS011;48555;50.952;-0.120;2023-08-24T03:06:06;4.90;;;2.58;;
61393;SDS011;48555;50.952;-0.120;2023-08-24T03:08:33;8.32;;;2.80;;
61393;SDS011;48555;50.952;-0.120;2023-08-24T03:10:59;5.85;;;3.00;;
61393;SDS011;48555;50.952;-0.120;2023-08-24T03:13:26;5.00;;;2.90;;
61393;SDS011;48555;50.952;-0.120;2023-08-24T03:15:51;6.40;;;2.90;;
61393;SDS011;48555;50.952;-0.120;2023-08-24T03:18:17;5.20;;;2.78;;
61393;SDS011;48555;50.952;-0.120;2023-08-24T03:20:44;5.75;;;3.22;;
61393;SDS011;48555;50.952;-0.120;2023-08-24T03:23:10;5.90;;;2.67;;
61393;SDS011;48555;50.952;-0.120;2023-08-24T03:25:36;7.40;;;3.00;;
61393;SDS011;48555;50.952;-0.120;2023-08-24T03:28:02;5.78;;;2.72;;
61393;SDS011;48555;50.952;-0.120;2023-08-24T03:30:29;5.43;;;2.60;;
61393;SDS011;48555;50.952;-0.120;2023-08-24T03:32:54;5.25;;;2.70;;
61393;SDS011;48555;50.952;-0.120;2023-08-24T03:35:20;5.47;;;2.65;;
61393;SDS011;48555;50.952;-0.120;2023-08-24T03:37:45;4.53;;;2.47;;
61393;SDS011;48555;50.952;-0.120;2023-08-24T03:40:11;4.90;;;2.67;;
61393;SDS011;48555;50.952;-0.120;2023-08-24T03:42:37;4.30;;;2.60;;
61393;SDS011;48555;50.952;-0.120;2023-08-24T03:45:03;6.38;;;2.60;;
61393;SDS011;48555;50.952;-0.120;2023-08-24T03:47:28;4.90;;;2.40;;
61393;SDS011;48555;50.952;-0.120;2023-08-24T03:49:54;4.35;;;2.53;;
61393;SDS011;48555;50.952;-0.120;2023-08-24T03:52:20;4.80;;;2.38;;
61393;SDS011;48555;50.952;-0.120;2023-08-24T03:54:45;5.72;;;2.70;;
61393;SDS011;48555;50.952;-0.120;2023-08-24T03:57:11;7.22;;;2.70;;
61393;SDS011;48555;50.952;-0.120;2023-08-24T03:59:36;4.38;;;2.53;;
61393;SDS011;48555;50.952;-0.120;2023-08-24T04:02:02;5.95;;;2.67;;
61393;SDS011;48555;50.952;-0.120;2023-08-24T04:04:28;4.40;;;2.30;;
61393;SDS011;48555;50.952;-0.120;2023-08-24T04:06:55;7.18;;;2.42;;
61393;SDS011;48555;50.952;-0.120;2023-08-24T04:09:20;5.25;;;2.60;;
61393;SDS011;48555;50.952;-0.120;2023-08-24T04:11:46;6.70;;;2.88;;
61393;SDS011;48555;50.952;-0.120;2023-08-24T04:14:11;5.68;;;2.72;;
61393;SDS011;48555;50.952;-0.120;2023-08-24T04:16:37;4.97;;;2.58;;
61393;SDS011;48555;50.952;-0.120;2023-08-24T04:19:02;5.47;;;3.05;;
61393;SDS011;48555;50.952;-0.120;2023-08-24T04:21:28;5.28;;;2.70;;
61393;SDS011;48555;50.952;-0.120;2023-08-24T04:23:53;4.10;;;2.58;;
61393;SDS011;48555;50.952;-0.120;2023-08-24T04:26:19;5.47;;;2.65;;
61393;SDS011;48555;50.952;-0.120;2023-08-24T04:28:44;4.20;;;2.53;;
61393;SDS011;48555;50.952;-0.120;2023-08-24T04:31:09;6.00;;;2.63;;
61393;SDS011;48555;50.952;-0.120;2023-08-24T04:33:35;5.22;;;2.60;;
61393;SDS011;48555;50.952;-0.120;2023-08-24T04:36:01;7.55;;;3.08;;
61393;SDS011;48555;50.952;-0.120;2023-08-24T04:38:28;6.75;;;3.08;;
61393;SDS011;48555;50.952;-0.120;2023-08-24T04:40:54;6.07;;;2.80;;
61393;SDS011;48555;50.952;-0.120;2023-08-24T04:43:21;6.85;;;2.90;;
61393;SDS011;48555;50.952;-0.120;2023-08-24T04:45:51;7.05;;;3.53;;
61393;SDS011;48555;50.952;-0.120;2023-08-24T04:48:21;4.85;;;2.63;;
61393;SDS011;48555;50.952;-0.120;2023-08-24T04:50:48;6.43;;;3.20;;
61393;SDS011;48555;50.952;-0.120;2023-08-24T04:53:15;7.72;;;3.17;;
61393;SDS011;48555;50.952;-0.120;2023-08-24T04:55:41;5.35;;;3.08;;
61393;SDS011;48555;50.952;-0.120;2023-08-24T04:58:08;7.05;;;3.17;;
61393;SDS011;48555;50.952;-0.120;2023-08-24T05:00:34;5.75;;;3.20;;
61393;SDS011;48555;50.952;-0.120;2023-08-24T05:03:01;7.43;;;3.70;;
61393;SDS011;48555;50.952;-0.120;2023-08-24T05:05:28;7.22;;;3.15;;
61393;SDS011;48555;50.952;-0.120;2023-08-24T05:07:54;8.63;;;4.00;;
61393;SDS011;48555;50.952;-0.120;2023-08-24T05:10:20;5.03;;;3.03;;
61393;SDS011;48555;50.952;-0.120;2023-08-24T05:12:45;7.97;;;3.65;;
61393;SDS011;48555;50.952;-0.120;2023-08-24T05:15:11;7.03;;;3.33;;
61393;SDS011;48555;50.952;-0.120;2023-08-24T05:17:38;6.22;;;3.42;;
61393;SDS011;48555;50.952;-0.120;2023-08-24T05:20:03;5.63;;;3.40;;
61393;SDS011;48555;50.952;-0.120;2023-08-24T05:22:29;6.35;;;3.17;;
61393;SDS011;48555;50.952;-0.120;2023-08-24T05:24:54;5.05;;;3.00;;
61393;SDS011;48555;50.952;-0.120;2023-08-24T05:27:19;5.30;;;3.22;;
61393;SDS011;48555;50.952;-0.120;2023-08-24T05:29:45;5.72;;;2.90;;
61393;SDS011;48555;50.952;-0.120;2023-08-24T05:32:10;7.07;;;3.20;;
61393;SDS011;48555;50.952;-0.120;2023-08-24T05:34:35;5.88;;;3.05;;
61393;SDS011;48555;50.952;-0.120;2023-08-24T05:37:01;6.63;;;3.50;;
61393;SDS011;48555;50.952;-0.120;2023-08-24T05:39:26;8.45;;;3.50;;
61393;SDS011;48555;50.952;-0.120;2023-08-24T05:41:52;5.60;;;3.33;;
61393;SDS011;48555;50.952;-0.120;2023-08-24T05:44:18;7.50;;;3.60;;
61393;SDS011;48555;50.952;-0.120;2023-08-24T05:46:44;6.22;;;3.75;;
61393;SDS011;48555;50.952;-0.120;2023-08-24T05:49:10;6.47;;;3.85;;
61393;SDS011;48555;50.952;-0.120;2023-08-24T05:51:36;6.63;;;3.90;;
61393;SDS011;48555;50.952;-0.120;2023-08-24T05:54:01;9.27;;;3.70;;
61393;SDS011;48555;50.952;-0.120;2023-08-24T05:56:26;7.35;;;3.88;;
61393;SDS011;48555;50.952;-0.120;2023-08-24T05:58:52;7.75;;;4.07;;
61393;SDS011;48555;50.952;-0.120;2023-08-24T06:01:18;7.38;;;3.78;;
61393;SDS011;48555;50.952;-0.120;2023-08-24T06:03:44;7.43;;;3.92;;
61393;SDS011;48555;50.952;-0.120;2023-08-24T06:06:09;5.55;;;3.80;;
61393;SDS011;48555;50.952;-0.120;2023-08-24T06:08:35;6.25;;;3.60;;
61393;SDS011;48555;50.952;-0.120;2023-08-24T06:11:00;8.05;;;3.50;;
61393;SDS011;48555;50.952;-0.120;2023-08-24T06:13:25;6.55;;;3.80;;
61393;SDS011;48555;50.952;-0.120;2023-08-24T06:15:51;5.65;;;3.63;;
61393;SDS011;48555;50.952;-0.120;2023-08-24T06:18:16;7.40;;;3.55;;
61393;SDS011;48555;50.952;-0.120;2023-08-24T06:20:41;5.43;;;3.42;;
61393;SDS011;48555;50.952;-0.120;2023-08-24T06:23:07;6.40;;;3.63;;
61393;SDS011;48555;50.952;-0.120;2023-08-24T06:25:32;7.22;;;3.95;;
61393;SDS011;48555;50.952;-0.120;2023-08-24T06:27:58;7.70;;;3.83;;
61393;SDS011;48555;50.952;-0.120;2023-08-24T06:30:24;7.88;;;3.70;;
61393;SDS011;48555;50.952;-0.120;2023-08-24T06:32:50;5.45;;;3.30;;
61393;SDS011;48555;50.952;-0.120;2023-08-24T06:35:16;6.28;;;3.50;;
61393;SDS011;48555;50.952;-0.120;2023-08-24T06:37:42;6.47;;;3.92;;
61393;SDS011;48555;50.952;-0.120;2023-08-24T06:40:08;7.30;;;3.50;;
61393;SDS011;48555;50.952;-0.120;2023-08-24T06:42:34;7.90;;;4.05;;
61393;SDS011;48555;50.952;-0.120;2023-08-24T06:44:59;9.45;;;4.30;;
61393;SDS011;48555;50.952;-0.120;2023-08-24T06:47:24;6.10;;;3.70;;
61393;SDS011;48555;50.952;-0.120;2023-08-24T06:49:50;8.23;;;4.03;;
61393;SDS011;48555;50.952;-0.120;2023-08-24T06:52:15;6.32;;;3.90;;
61393;SDS011;48555;50.952;-0.120;2023-08-24T06:54:41;6.47;;;3.95;;
61393;SDS011;48555;50.952;-0.120;2023-08-24T06:57:06;6.13;;;3.75;;
61393;SDS011;48555;50.952;-0.120;2023-08-24T06:59:32;7.45;;;3.90;;
61393;SDS011;48555;50.952;-0.120;2023-08-24T07:01:57;7.35;;;3.90;;
61393;SDS011;48555;50.952;-0.120;2023-08-24T07:04:23;6.63;;;4.03;;
61393;SDS011;48555;50.952;-0.120;2023-08-24T07:06:48;8.52;;;4.13;;
61393;SDS011;48555;50.952;-0.120;2023-08-24T07:09:14;8.38;;;3.88;;
61393;SDS011;48555;50.952;-0.120;2023-08-24T07:11:40;8.85;;;3.70;;
61393;SDS011;48555;50.952;-0.120;2023-08-24T07:14:05;7.25;;;3.95;;
61393;SDS011;48555;50.952;-0.120;2023-08-24T07:16:31;6.57;;;4.03;;
61393;SDS011;48555;50.952;-0.120;2023-08-24T07:18:56;8.13;;;4.15;;
61393;SDS011;48555;50.952;-0.120;2023-08-24T07:21:22;9.50;;;4.30;;
61393;SDS011;48555;50.952;-0.120;2023-08-24T07:23:47;7.70;;;3.80;;
61393;SDS011;48555;50.952;-0.120;2023-08-24T07:26:12;7.53;;;4.45;;
61393;SDS011;48555;50.952;-0.120;2023-08-24T07:28:38;7.38;;;4.40;;
61393;SDS011;48555;50.952;-0.120;2023-08-24T07:31:07;7.65;;;4.30;;
61393;SDS011;48555;50.952;-0.120;2023-08-24T07:33:38;7.13;;;3.65;;
61393;SDS011;48555;50.952;-0.120;2023-08-24T07:36:04;6.80;;;3.65;;
61393;SDS011;48555;50.952;-0.120;2023-08-24T07:38:30;7.30;;;3.83;;
61393;SDS011;48555;50.952;-0.120;2023-08-24T07:40:56;8.05;;;3.90;;
61393;SDS011;48555;50.952;-0.120;2023-08-24T07:43:22;7.20;;;4.15;;
61393;SDS011;48555;50.952;-0.120;2023-08-24T07:45:48;6.03;;;4.13;;
61393;SDS011;48555;50.952;-0.120;2023-08-24T07:48:13;7.60;;;4.18;;
61393;SDS011;48555;50.952;-0.120;2023-08-24T07:50:39;8.65;;;4.10;;
61393;SDS011;48555;50.952;-0.120;2023-08-24T07:53:04;7.53;;;4.03;;
61393;SDS011;48555;50.952;-0.120;2023-08-24T07:55:29;7.90;;;4.10;;
61393;SDS011;48555;50.952;-0.120;2023-08-24T07:57:55;9.32;;;4.50;;
61393;SDS011;48555;50.952;-0.120;2023-08-24T08:00:20;9.10;;;4.03;;
61393;SDS011;48555;50.952;-0.120;2023-08-24T08:02:46;7.25;;;4.35;;
61393;SDS011;48555;50.952;-0.120;2023-08-24T08:05:15;6.82;;;4.18;;
61393;SDS011;48555;50.952;-0.120;2023-08-24T08:07:40;7.53;;;3.95;;
61393;SDS011;48555;50.952;-0.120;2023-08-24T08:10:06;6.13;;;3.65;;
61393;SDS011;48555;50.952;-0.120;2023-08-24T08:12:31;7.70;;;4.22;;
61393;SDS011;48555;50.952;-0.120;2023-08-24T08:14:57;7.70;;;4.93;;
61393;SDS011;48555;50.952;-0.120;2023-08-24T08:17:23;9.13;;;4.45;;
61393;SDS011;48555;50.952;-0.120;2023-08-24T08:19:53;9.02;;;4.82;;
61393;SDS011;48555;50.952;-0.120;2023-08-24T08:22:20;8.18;;;4.47;;
61393;SDS011;48555;50.952;-0.120;2023-08-24T08:24:45;7.75;;;4.57;;
61393;SDS011;48555;50.952;-0.120;2023-08-24T08:27:10;6.20;;;4.50;;
61393;SDS011;48555;50.952;-0.120;2023-08-24T08:29:36;6.57;;;4.07;;
61393;SDS011;48555;50.952;-0.120;2023-08-24T08:32:01;7.03;;;4.60;;
61393;SDS011;48555;50.952;-0.120;2023-08-24T08:34:27;7.90;;;4.28;;
61393;SDS011;48555;50.952;-0.120;2023-08-24T08:36:52;7.90;;;3.92;;
61393;SDS011;48555;50.952;-0.120;2023-08-24T08:39:17;8.30;;;4.55;;
61393;SDS011;48555;50.952;-0.120;2023-08-24T08:41:43;7.80;;;4.43;;
61393;SDS011;48555;50.952;-0.120;2023-08-24T08:44:10;8.90;;;4.78;;
61393;SDS011;48555;50.952;-0.120;2023-08-24T08:46:38;9.35;;;4.65;;
61393;SDS011;48555;50.952;-0.120;2023-08-24T08:49:05;9.15;;;4.68;;
61393;SDS011;48555;50.952;-0.120;2023-08-24T08:51:32;9.50;;;4.45;;
61393;SDS011;48555;50.952;-0.120;2023-08-24T08:53:59;7.38;;;4.07;;
61393;SDS011;48555;50.952;-0.120;2023-08-24T08:56:25;8.90;;;4.43;;
61393;SDS011;48555;50.952;-0.120;2023-08-24T08:58:51;8.73;;;4.30;;
61393;SDS011;48555;50.952;-0.120;2023-08-24T09:01:17;8.43;;;4.30;;
61393;SDS011;48555;50.952;-0.120;2023-08-24T09:03:44;7.55;;;4.38;;
61393;SDS011;48555;50.952;-0.120;2023-08-24T09:06:10;8.98;;;4.90;;
61393;SDS011;48555;50.952;-0.120;2023-08-24T09:08:35;10.57;;;5.00;;
61393;SDS011;48555;50.952;-0.120;2023-08-24T09:11:01;8.60;;;5.03;;
61393;SDS011;48555;50.952;-0.120;2023-08-24T09:13:28;8.27;;;4.80;;
61393;SDS011;48555;50.952;-0.120;2023-08-24T09:15:54;8.80;;;4.85;;
61393;SDS011;48555;50.952;-0.120;2023-08-24T09:18:33;10.00;;;6.20;;
61393;SDS011;48555;50.952;-0.120;2023-08-24T09:21:00;8.73;;;5.10;;
61393;SDS011;48555;50.952;-0.120;2023-08-24T09:23:33;9.70;;;5.97;;
61393;SDS011;48555;50.952;-0.120;2023-08-24T09:25:58;8.88;;;5.80;;
61393;SDS011;48555;50.952;-0.120;2023-08-24T09:28:23;9.32;;;5.50;;
61393;SDS011;48555;50.952;-0.120;2023-08-24T09:30:52;9.82;;;5.32;;
61393;SDS011;48555;50.952;-0.120;2023-08-24T09:33:19;10.23;;;5.88;;
61393;SDS011;48555;50.952;-0.120;2023-08-24T09:35:51;10.70;;;6.00;;
61393;SDS011;48555;50.952;-0.120;2023-08-24T09:38:19;8.75;;;5.65;;
61393;SDS011;48555;50.952;-0.120;2023-08-24T09:40:46;9.38;;;5.40;;
61393;SDS011;48555;50.952;-0.120;2023-08-24T09:43:16;9.30;;;5.07;;
61393;SDS011;48555;50.952;-0.120;2023-08-24T09:45:48;10.23;;;5.20;;
61393;SDS011;48555;50.952;-0.120;2023-08-24T09:48:17;10.13;;;5.30;;
61393;SDS011;48555;50.952;-0.120;2023-08-24T09:50:47;10.07;;;5.30;;
61393;SDS011;48555;50.952;-0.120;2023-08-24T09:53:16;10.43;;;5.78;;
61393;SDS011;48555;50.952;-0.120;2023-08-24T09:55:44;9.25;;;4.95;;
61393;SDS011;48555;50.952;-0.120;2023-08-24T09:58:15;10.68;;;5.95;;
61393;SDS011;48555;50.952;-0.120;2023-08-24T10:00:42;8.85;;;5.13;;
61393;SDS011;48555;50.952;-0.120;2023-08-24T10:03:11;7.95;;;4.57;;
61393;SDS011;48555;50.952;-0.120;2023-08-24T10:05:41;9.13;;;4.97;;
61393;SDS011;48555;50.952;-0.120;2023-08-24T10:08:09;7.00;;;4.75;;
61393;SDS011;48555;50.952;-0.120;2023-08-24T10:10:35;7.78;;;4.97;;
61393;SDS011;48555;50.952;-0.120;2023-08-24T10:13:04;7.30;;;4.88;;
61393;SDS011;48555;50.952;-0.120;2023-08-24T10:15:35;10.85;;;5.43;;
61393;SDS011;48555;50.952;-0.120;2023-08-24T10:18:02;10.02;;;5.32;;
61393;SDS011;48555;50.952;-0.120;2023-08-24T10:20:29;10.02;;;5.18;;
61393;SDS011;48555;50.952;-0.120;2023-08-24T10:22:55;9.38;;;4.97;;
61393;SDS011;48555;50.952;-0.120;2023-08-24T10:25:23;9.98;;;4.85;;
61393;SDS011;48555;50.952;-0.120;2023-08-24T10:27:49;8.02;;;4.78;;
61393;SDS011;48555;50.952;-0.120;2023-08-24T10:30:16;9.90;;;5.30;;
61393;SDS011;48555;50.952;-0.120;2023-08-24T10:32:44;8.90;;;5.40;;
61393;SDS011;48555;50.952;-0.120;2023-08-24T10:35:10;7.68;;;4.93;;
61393;SDS011;48555;50.952;-0.120;2023-08-24T10:37:36;8.38;;;5.10;;
61393;SDS011;48555;50.952;-0.120;2023-08-24T10:40:02;8.80;;;5.45;;
61393;SDS011;48555;50.952;-0.120;2023-08-24T10:42:42;9.30;;;5.63;;
61393;SDS011;48555;50.952;-0.120;2023-08-24T10:45:09;11.68;;;5.95;;
61393;SDS011;48555;50.952;-0.120;2023-08-24T10:47:43;9.55;;;5.40;;
61393;SDS011;48555;50.952;-0.120;2023-08-24T10:50:10;8.60;;;5.20;;
61393;SDS011;48555;50.952;-0.120;2023-08-24T10:52:37;11.75;;;5.50;;
61393;SDS011;48555;50.952;-0.120;2023-08-24T10:55:04;10.93;;;5.88;;
61393;SDS011;48555;50.952;-0.120;2023-08-24T10:57:47;9.88;;;5.97;;
61393;SDS011;48555;50.952;-0.120;2023-08-24T11:00:25;8.68;;;5.53;;
61393;SDS011;48555;50.952;-0.120;2023-08-24T11:02:52;10.82;;;5.60;;
61393;SDS011;48555;50.952;-0.120;2023-08-24T11:07:53;10.63;;;6.07;;
61393;SDS011;48555;50.952;-0.120;2023-08-24T11:10:19;10.85;;;5.97;;
61393;SDS011;48555;50.952;-0.120;2023-08-24T11:15:43;8.30;;;5.95;;
61393;SDS011;48555;50.952;-0.120;2023-08-24T11:18:14;11.82;;;6.50;;
61393;SDS011;48555;50.952;-0.120;2023-08-24T11:20:57;11.98;;;7.30;;
61393;SDS011;48555;50.952;-0.120;2023-08-24T11:23:25;11.50;;;6.40;;
61393;SDS011;48555;50.952;-0.120;2023-08-24T11:25:52;11.40;;;7.95;;
61393;SDS011;48555;50.952;-0.120;2023-08-24T11:28:21;13.18;;;8.27;;
61393;SDS011;48555;50.952;-0.120;2023-08-24T11:30:48;10.80;;;8.40;;
61393;SDS011;48555;50.952;-0.120;2023-08-24T11:33:14;11.73;;;7.70;;
61393;SDS011;48555;50.952;-0.120;2023-08-24T11:35:41;8.90;;;7.70;;
61393;SDS011;48555;50.952;-0.120;2023-08-24T11:38:07;10.50;;;7.72;;
61393;SDS011;48555;50.952;-0.120;2023-08-24T11:40:33;10.40;;;7.70;;
61393;SDS011;48555;50.952;-0.120;2023-08-24T11:42:58;11.02;;;8.10;;
61393;SDS011;48555;50.952;-0.120;2023-08-24T11:45:29;12.98;;;7.85;;
61393;SDS011;48555;50.952;-0.120;2023-08-24T11:47:57;10.05;;;7.32;;
61393;SDS011;48555;50.952;-0.120;2023-08-24T11:50:24;9.68;;;6.60;;
61393;SDS011;48555;50.952;-0.120;2023-08-24T11:52:49;11.68;;;7.43;;
61393;SDS011;48555;50.952;-0.120;2023-08-24T11:55:15;11.50;;;7.40;;
61393;SDS011;48555;50.952;-0.120;2023-08-24T11:57:41;10.10;;;6.90;;
61393;SDS011;48555;50.952;-0.120;2023-08-24T12:00:07;13.07;;;6.47;;
61393;SDS011;48555;50.952;-0.120;2023-08-24T12:02:34;12.20;;;6.63;;
61393;SDS011;48555;50.952;-0.120;2023-08-24T12:05:00;10.80;;;6.15;;
61393;SDS011;48555;50.952;-0.120;2023-08-24T12:07:30;12.65;;;6.28;;
61393;SDS011;48555;50.952;-0.120;2023-08-24T12:09:56;10.90;;;6.13;;
61393;SDS011;48555;50.952;-0.120;2023-08-24T12:12:26;9.43;;;6.47;;
61393;SDS011;48555;50.952;-0.120;2023-08-24T12:14:52;11.30;;;6.15;;
61393;SDS011;48555;50.952;-0.120;2023-08-24T12:17:18;10.68;;;5.95;;
61393;SDS011;48555;50.952;-0.120;2023-08-24T12:19:56;11.52;;;6.70;;
61393;SDS011;48555;50.952;-0.120;2023-08-24T12:22:26;10.40;;;6.75;;
61393;SDS011;48555;50.952;-0.120;2023-08-24T12:24:51;10.63;;;6.03;;
61393;SDS011;48555;50.952;-0.120;2023-08-24T12:27:20;12.55;;;6.35;;
61393;SDS011;48555;50.952;-0.120;2023-08-24T12:29:47;9.50;;;5.68;;
61393;SDS011;48555;50.952;-0.120;2023-08-24T12:32:12;9.60;;;5.80;;
61393;SDS011;48555;50.952;-0.120;2023-08-24T12:34:40;10.93;;;6.07;;
61393;SDS011;48555;50.952;-0.120;2023-08-24T12:37:05;12.45;;;6.28;;
61393;SDS011;48555;50.952;-0.120;2023-08-24T12:39:37;9.88;;;6.10;;
61393;SDS011;48555;50.952;-0.120;2023-08-24T12:42:04;12.63;;;6.05;;
61393;SDS011;48555;50.952;-0.120;2023-08-24T12:44:30;8.63;;;5.43;;
61393;SDS011;48555;50.952;-0.120;2023-08-24T12:46:55;9.70;;;6.05;;
61393;SDS011;48555;50.952;-0.120;2023-08-24T12:49:20;9.45;;;5.20;;
61393;SDS011;48555;50.952;-0.120;2023-08-24T12:51:46;10.20;;;5.75;;
61393;SDS011;48555;50.952;-0.120;2023-08-24T12:54:12;8.55;;;5.68;;
61393;SDS011;48555;50.952;-0.120;2023-08-24T12:56:38;11.43;;;5.90;;
61393;SDS011;48555;50.952;-0.120;2023-08-24T12:59:06;8.80;;;5.50;;
61393;SDS011;48555;50.952;-0.120;2023-08-24T13:01:32;7.70;;;5.18;;
61393;SDS011;48555;50.952;-0.120;2023-08-24T13:03:57;7.95;;;5.40;;
61393;SDS011;48555;50.952;-0.120;2023-08-24T13:06:23;11.55;;;5.70;;
61393;SDS011;48555;50.952;-0.120;2023-08-24T13:08:48;8.23;;;5.47;;
61393;SDS011;48555;50.952;-0.120;2023-08-24T13:11:13;8.55;;;5.47;;
61393;SDS011;48555;50.952;-0.120;2023-08-24T13:13:39;8.07;;;4.88;;
61393;SDS011;48555;50.952;-0.120;2023-08-24T13:16:05;11.90;;;6.40;;
61393;SDS011;48555;50.952;-0.120;2023-08-24T13:18:30;9.13;;;5.43;;
61393;SDS011;48555;50.952;-0.120;2023-08-24T13:20:56;10.55;;;5.35;;
61393;SDS011;48555;50.952;-0.120;2023-08-24T13:23:21;7.63;;;4.80;;
61393;SDS011;48555;50.952;-0.120;2023-08-24T13:25:46;9.25;;;4.90;;
61393;SDS011;48555;50.952;-0.120;2023-08-24T13:28:12;8.30;;;4.50;;
61393;SDS011;48555;50.952;-0.120;2023-08-24T13:30:37;8.55;;;4.25;;
61393;SDS011;48555;50.952;-0.120;2023-08-24T13:33:03;7.25;;;3.40;;
61393;SDS011;48555;50.952;-0.120;2023-08-24T13:35:28;6.97;;;3.20;;
61393;SDS011;48555;50.952;-0.120;2023-08-24T13:37:53;6.25;;;3.08;;
61393;SDS011;48555;50.952;-0.120;2023-08-24T13:40:19;7.32;;;3.00;;
61393;SDS011;48555;50.952;-0.120;2023-08-24T13:42:44;6.15;;;2.97;;
61393;SDS011;48555;50.952;-0.120;2023-08-24T13:45:10;5.60;;;3.00;;
61393;SDS011;48555;50.952;-0.120;2023-08-24T13:47:35;7.05;;;3.30;;
61393;SDS011;48555;50.952;-0.120;2023-08-24T13:50:00;8.95;;;3.08;;
61393;SDS011;48555;50.952;-0.120;2023-08-24T13:52:26;6.57;;;3.10;;
61393;SDS011;48555;50.952;-0.120;2023-08-24T13:54:51;10.07;;;3.20;;
61393;SDS011;48555;50.952;-0.120;2023-08-24T13:57:16;5.40;;;2.85;;
61393;SDS011;48555;50.952;-0.120;2023-08-24T13:59:42;5.22;;;2.90;;
61393;SDS011;48555;50.952;-0.120;2023-08-24T14:02:07;5.22;;;2.80;;
61393;SDS011;48555;50.952;-0.120;2023-08-24T14:04:33;6.90;;;2.78;;
61393;SDS011;48555;50.952;-0.120;2023-08-24T14:06:58;5.47;;;3.05;;
61393;SDS011;48555;50.952;-0.120;2023-08-24T14:09:24;7.63;;;2.80;;
61393;SDS011;48555;50.952;-0.120;2023-08-24T14:11:49;6.22;;;2.83;;
61393;SDS011;48555;50.952;-0.120;2023-08-24T14:14:14;6.15;;;2.70;;
61393;SDS011;48555;50.952;-0.120;2023-08-24T14:16:40;7.63;;;3.00;;
61393;SDS011;48555;50.952;-0.120;2023-08-24T14:19:05;6.32;;;3.00;;
61393;SDS011;48555;50.952;-0.120;2023-08-24T14:21:31;7.00;;;2.83;;
61393;SDS011;48555;50.952;-0.120;2023-08-24T14:23:56;7.97;;;2.75;;
61393;SDS011;48555;50.952;-0.120;2023-08-24T14:26:22;7.28;;;3.25;;
61393;SDS011;48555;50.952;-0.120;2023-08-24T14:31:22;7.78;;;3.05;;
61393;SDS011;48555;50.952;-0.120;2023-08-24T14:33:49;7.38;;;3.05;;
61393;SDS011;48555;50.952;-0.120;2023-08-24T14:36:18;8.75;;;2.97;;
61393;SDS011;48555;50.952;-0.120;2023-08-24T14:38:43;7.03;;;3.22;;
61393;SDS011;48555;50.952;-0.120;2023-08-24T14:41:10;7.60;;;3.20;;
61393;SDS011;48555;50.952;-0.120;2023-08-24T14:43:36;6.82;;;3.17;;
61393;SDS011;48555;50.952;-0.120;2023-08-24T14:46:01;7.57;;;3.17;;
61393;SDS011;48555;50.952;-0.120;2023-08-24T14:48:27;7.85;;;3.38;;